Time;durP1;ratioP1;P1;durP2;ratioP2;P2;SDS_P1;SDS_P2;PMS_P1;PMS_P2;Temp;Humidity;BMP_temperature;BMP_pressure;BME280_temperature;BME280_humidity;BME280_pressure;Samples;Min_cycle;Max_cycle;Signal;HPM_P1;HPM_P2
2023/09/20 00:00:54;;;;;;;3.25;3.05;;;;;;;;;;4974027;28;20377;-66
2023/09/20 00:03:19;;;;;;;3.97;3.67;;;;;;;;;;4975879;28;20023;-68
2023/09/20 00:05:49;;;;;;;3.67;3.38;;;;;;;;;;4976124;28;20449;-67
2023/09/20 00:08:14;;;;;;;4.90;3.07;;;;;;;;;;4975559;28;20058;-67
2023/09/20 00:10:40;;;;;;;4.07;3.55;;;;;;;;;;5043007;28;20073;-66
2023/09/20 00:13:05;;;;;;;3.17;2.97;;;;;;;;;;4975743;28;20042;-66
2023/09/20 00:15:32;;;;;;;3.17;2.97;;;;;;;;;;4975815;28;20051;-65
2023/09/20 00:17:58;;;;;;;4.35;3.50;;;;;;;;;;4975438;28;20114;-66
2023/09/20 00:20:24;;;;;;;4.22;3.78;;;;;;;;;;4975457;28;20035;-66
2023/09/20 00:22:50;;;;;;;4.47;4.07;;;;;;;;;;4975352;28;20023;-66
2023/09/20 00:25:16;;;;;;;4.72;4.03;;;;;;;;;;4975180;28;20404;-67
2023/09/20 00:27:42;;;;;;;5.30;4.78;;;;;;;;;;4975495;28;20095;-63
2023/09/20 00:30:14;;;;;;;5.70;5.10;;;;;;;;;;5042446;28;20034;-63
2023/09/20 00:32:43;;;;;;;5.88;5.28;;;;;;;;;;5042753;28;20074;-63
2023/09/20 00:35:10;;;;;;;7.10;4.93;;;;;;;;;;4975654;28;20025;-63
2023/09/20 00:37:39;;;;;;;3.90;3.60;;;;;;;;;;4975195;28;20488;-63
2023/09/20 00:40:13;;;;;;;4.68;4.15;;;;;;;;;;5042307;28;20029;-64
2023/09/20 00:42:38;;;;;;;4.60;4.20;;;;;;;;;;5042546;28;20031;-63
2023/09/20 00:45:07;;;;;;;7.38;3.70;;;;;;;;;;4975190;28;20038;-63
2023/09/20 00:47:33;;;;;;;4.28;3.88;;;;;;;;;;5041743;28;20070;-64
2023/09/20 00:49:59;;;;;;;4.85;3.88;;;;;;;;;;4975103;28;20035;-63
2023/09/20 00:52:27;;;;;;;4.28;3.97;;;;;;;;;;4975080;28;20069;-63
2023/09/20 00:54:54;;;;;;;5.22;3.92;;;;;;;;;;5041839;28;20031;-64
2023/09/20 00:57:19;;;;;;;3.65;3.22;;;;;;;;;;4974911;28;20027;-63
2023/09/20 00:59:45;;;;;;;4.00;3.70;;;;;;;;;;4974893;28;20468;-65
2023/09/20 01:02:11;;;;;;;6.15;4.20;;;;;;;;;;5041632;28;20038;-64
2023/09/20 01:04:39;;;;;;;4.05;3.70;;;;;;;;;;4974500;28;20134;-64
2023/09/20 01:07:04;;;;;;;4.15;3.50;;;;;;;;;;4974987;28;20023;-64
2023/09/20 01:09:30;;;;;;;4.30;3.90;;;;;;;;;;4974866;28;20041;-66
2023/09/20 01:11:57;;;;;;;3.95;3.60;;;;;;;;;;4973504;28;20089;-66
2023/09/20 01:14:22;;;;;;;5.38;4.05;;;;;;;;;;5040715;28;20368;-65
2023/09/20 01:16:48;;;;;;;4.88;4.47;;;;;;;;;;4974827;28;20035;-65
2023/09/20 01:19:13;;;;;;;5.03;4.13;;;;;;;;;;5041832;28;20093;-67
2023/09/20 01:21:43;;;;;;;4.53;4.05;;;;;;;;;;4974793;28;20034;-67
2023/09/20 01:24:08;;;;;;;5.03;4.65;;;;;;;;;;4974764;28;20089;-66
2023/09/20 01:26:35;;;;;;;5.05;3.92;;;;;;;;;;4974488;28;20034;-66
2023/09/20 01:29:00;;;;;;;3.88;3.67;;;;;;;;;;5025062;28;20062;-66
2023/09/20 01:31:26;;;;;;;4.35;4.05;;;;;;;;;;4974211;28;20095;-66
2023/09/20 01:33:52;;;;;;;4.25;3.95;;;;;;;;;;5041441;28;20034;-66
2023/09/20 01:36:18;;;;;;;5.32;4.82;;;;;;;;;;4974043;28;20041;-66
2023/09/20 01:38:43;;;;;;;5.35;4.57;;;;;;;;;;4974377;28;20031;-67
2023/09/20 01:41:09;;;;;;;4.75;4.35;;;;;;;;;;5040997;28;20034;-68
2023/09/20 01:43:36;;;;;;;5.65;4.40;;;;;;;;;;4974345;28;20046;-67
2023/09/20 01:46:07;;;;;;;4.60;4.20;;;;;;;;;;5040791;28;20168;-68
2023/09/20 01:48:33;;;;;;;4.00;3.60;;;;;;;;;;4974146;28;20050;-67
2023/09/20 01:50:59;;;;;;;3.67;3.38;;;;;;;;;;5041055;28;20031;-67
2023/09/20 01:53:25;;;;;;;3.83;3.60;;;;;;;;;;4973981;28;20507;-67
2023/09/20 01:55:51;;;;;;;4.10;3.80;;;;;;;;;;5024149;28;20050;-67
2023/09/20 01:58:16;;;;;;;3.95;3.65;;;;;;;;;;5024635;28;20038;-67
2023/09/20 02:00:42;;;;;;;3.67;3.20;;;;;;;;;;5041051;28;20031;-68
2023/09/20 02:03:13;;;;;;;3.15;2.95;;;;;;;;;;5041020;28;20035;-68
2023/09/20 02:05:39;;;;;;;4.00;3.67;;;;;;;;;;4973953;28;20053;-67
2023/09/20 02:08:05;;;;;;;4.50;3.20;;;;;;;;;;5040784;28;20144;-69
2023/09/20 02:10:31;;;;;;;5.30;2.70;;;;;;;;;;5040622;28;20030;-68
2023/09/20 02:12:57;;;;;;;3.97;3.17;;;;;;;;;;4973617;28;20388;-69
2023/09/20 02:15:27;;;;;;;2.97;2.78;;;;;;;;;;4973620;28;20062;-68
2023/09/20 02:17:52;;;;;;;3.38;3.08;;;;;;;;;;5040877;28;20023;-68
2023/09/20 02:20:19;;;;;;;3.58;2.90;;;;;;;;;;5040052;28;20361;-68
2023/09/20 02:22:48;;;;;;;3.45;3.15;;;;;;;;;;4973279;28;20031;-68
2023/09/20 02:25:14;;;;;;;3.63;3.38;;;;;;;;;;4973331;28;20045;-68
2023/09/20 02:27:41;;;;;;;4.20;3.17;;;;;;;;;;5040839;28;20027;-68
2023/09/20 02:30:12;;;;;;;3.30;3.10;;;;;;;;;;4973087;28;20039;-68
2023/09/20 02:32:38;;;;;;;5.22;3.00;;;;;;;;;;4973631;28;20031;-68
2023/09/20 02:35:04;;;;;;;3.17;2.97;;;;;;;;;;5040432;28;20461;-68
2023/09/20 02:37:30;;;;;;;3.33;3.13;;;;;;;;;;4973466;28;20472;-66
2023/09/20 02:39:55;;;;;;;3.58;3.08;;;;;;;;;;5040311;28;20084;-66
2023/09/20 02:42:22;;;;;;;3.15;2.95;;;;;;;;;;5023832;28;20026;-66
2023/09/20 02:44:51;;;;;;;3.28;2.95;;;;;;;;;;4973502;28;20431;-66
2023/09/20 02:47:18;;;;;;;3.60;3.40;;;;;;;;;;4973358;28;20122;-66
2023/09/20 02:49:44;;;;;;;3.35;3.13;;;;;;;;;;5040220;28;20035;-66
2023/09/20 02:52:10;;;;;;;4.40;3.80;;;;;;;;;;5039907;28;20109;-67
2023/09/20 02:54:35;;;;;;;4.15;3.85;;;;;;;;;;4973436;28;20031;-66
2023/09/20 02:57:00;;;;;;;5.13;3.90;;;;;;;;;;5022831;28;20126;-66
2023/09/20 02:59:26;;;;;;;3.50;3.30;;;;;;;;;;4973125;28;20113;-66
2023/09/20 03:01:52;;;;;;;3.67;2.75;;;;;;;;;;5004110;28;20509;-65
2023/09/20 03:04:18;;;;;;;3.75;3.15;;;;;;;;;;4972245;28;20130;-64
2023/09/20 03:06:44;;;;;;;3.53;3.13;;;;;;;;;;4971966;28;20065;-64
2023/09/20 03:09:10;;;;;;;3.90;3.55;;;;;;;;;;4971516;28;20037;-64
2023/09/20 03:11:37;;;;;;;5.30;3.83;;;;;;;;;;4972787;28;20035;-65
2023/09/20 03:14:03;;;;;;;4.95;3.38;;;;;;;;;;4973201;28;20035;-65
2023/09/20 03:16:28;;;;;;;4.18;3.35;;;;;;;;;;4971299;28;20128;-65
2023/09/20 03:18:55;;;;;;;3.40;3.00;;;;;;;;;;4971319;28;20035;-65
2023/09/20 03:21:20;;;;;;;3.75;3.45;;;;;;;;;;4983347;28;20034;-66
2023/09/20 03:23:46;;;;;;;6.00;3.17;;;;;;;;;;4971542;28;20038;-66
2023/09/20 03:26:15;;;;;;;3.55;2.80;;;;;;;;;;4971347;28;20034;-66
2023/09/20 03:28:43;;;;;;;3.72;3.33;;;;;;;;;;4971698;28;20062;-66
2023/09/20 03:31:11;;;;;;;3.30;3.03;;;;;;;;;;4982916;28;20077;-66
2023/09/20 03:33:36;;;;;;;2.80;2.60;;;;;;;;;;4971685;28;20038;-67
2023/09/20 03:36:15;;;;;;;3.42;3.13;;;;;;;;;;4970483;28;20053;-67
2023/09/20 03:38:41;;;;;;;2.67;2.47;;;;;;;;;;4971127;28;20031;-67
2023/09/20 03:41:07;;;;;;;2.50;2.30;;;;;;;;;;4972599;28;20034;-65
2023/09/20 03:43:33;;;;;;;6.00;2.72;;;;;;;;;;5038996;28;20479;-66
2023/09/20 03:46:01;;;;;;;2.97;2.78;;;;;;;;;;5039060;28;20035;-66
2023/09/20 03:48:27;;;;;;;3.22;2.90;;;;;;;;;;5039384;28;20444;-64
2023/09/20 03:50:52;;;;;;;2.90;2.70;;;;;;;;;;5024589;28;20034;-65
2023/09/20 03:53:18;;;;;;;2.53;2.40;;;;;;;;;;4954660;28;20065;-64
2023/09/20 03:55:48;;;;;;;2.63;2.42;;;;;;;;;;4971444;28;20164;-65
2023/09/20 03:58:15;;;;;;;2.58;2.47;;;;;;;;;;4971305;28;20041;-64
2023/09/20 04:00:42;;;;;;;3.30;2.97;;;;;;;;;;4978271;28;20393;-63
2023/09/20 04:03:14;;;;;;;3.92;3.42;;;;;;;;;;4972346;28;20038;-62
2023/09/20 04:05:39;;;;;;;5.22;4.82;;;;;;;;;;4970822;28;20471;-65
2023/09/20 04:08:06;;;;;;;6.03;5.55;;;;;;;;;;4954966;28;20031;-62
2023/09/20 04:10:33;;;;;;;6.60;6.00;;;;;;;;;;4972917;28;20030;-64
2023/09/20 04:12:58;;;;;;;5.97;5.57;;;;;;;;;;5016200;28;20023;-64
2023/09/20 04:15:24;;;;;;;4.60;4.20;;;;;;;;;;4970836;28;20027;-64
2023/09/20 04:17:51;;;;;;;11.50;3.78;;;;;;;;;;5011850;28;20031;-64
2023/09/20 04:20:20;;;;;;;3.90;3.40;;;;;;;;;;5021594;28;20581;-64
2023/09/20 04:22:46;;;;;;;4.03;3.63;;;;;;;;;;5038819;28;20477;-63
2023/09/20 04:25:12;;;;;;;4.95;3.47;;;;;;;;;;5038641;28;20076;-65
2023/09/20 04:27:41;;;;;;;8.15;5.05;;;;;;;;;;5038441;28;20042;-65
2023/09/20 04:30:13;;;;;;;6.30;4.47;;;;;;;;;;4989748;28;20026;-65
2023/09/20 04:32:40;;;;;;;3.15;2.95;;;;;;;;;;4989611;28;20795;-66
2023/09/20 04:35:09;;;;;;;2.95;2.72;;;;;;;;;;5001128;28;20045;-66
2023/09/20 04:37:34;;;;;;;3.65;2.63;;;;;;;;;;5007780;28;20505;-64
2023/09/20 04:40:00;;;;;;;2.63;2.42;;;;;;;;;;5003359;28;20385;-63
2023/09/20 04:42:33;;;;;;;3.50;3.20;;;;;;;;;;5003292;28;20027;-64
2023/09/20 04:44:59;;;;;;;4.35;2.80;;;;;;;;;;4975187;28;20081;-66
2023/09/20 04:47:25;;;;;;;3.25;2.80;;;;;;;;;;4956199;28;20027;-67
2023/09/20 04:49:51;;;;;;;2.58;2.25;;;;;;;;;;4982898;28;20431;-67
2023/09/20 04:52:16;;;;;;;2.55;2.38;;;;;;;;;;5040799;28;20035;-67
2023/09/20 04:54:43;;;;;;;3.15;2.55;;;;;;;;;;4973237;28;20465;-67
2023/09/20 04:57:09;;;;;;;3.60;2.92;;;;;;;;;;5041619;28;20038;-67
2023/09/20 04:59:36;;;;;;;5.78;2.95;;;;;;;;;;5041754;28;20031;-68
2023/09/20 05:02:03;;;;;;;3.33;2.47;;;;;;;;;;5041359;28;20031;-67
2023/09/20 05:04:29;;;;;;;3.15;2.72;;;;;;;;;;5024739;28;20151;-61
2023/09/20 05:06:55;;;;;;;3.13;2.85;;;;;;;;;;5041591;28;20067;-61
2023/09/20 05:09:21;;;;;;;4.05;2.97;;;;;;;;;;5041242;28;20034;-62
2023/09/20 05:11:47;;;;;;;3.53;3.20;;;;;;;;;;5024896;28;20034;-62
2023/09/20 05:14:12;;;;;;;6.50;3.35;;;;;;;;;;5041266;28;20030;-62
2023/09/20 05:16:38;;;;;;;4.80;4.15;;;;;;;;;;5040677;28;20026;-63
2023/09/20 05:19:03;;;;;;;4.78;4.07;;;;;;;;;;5041324;28;20027;-63
2023/09/20 05:21:29;;;;;;;5.32;3.80;;;;;;;;;;5041547;28;20130;-62
2023/09/20 05:23:55;;;;;;;6.00;3.95;;;;;;;;;;5041088;28;20039;-62
2023/09/20 05:26:21;;;;;;;4.70;4.13;;;;;;;;;;4974369;28;20064;-62
2023/09/20 05:28:47;;;;;;;5.53;4.13;;;;;;;;;;4974345;28;20030;-63
2023/09/20 05:31:13;;;;;;;5.00;3.60;;;;;;;;;;4974214;28;20103;-63
2023/09/20 05:33:39;;;;;;;5.03;4.20;;;;;;;;;;4973640;28;20054;-63
2023/09/20 05:36:05;;;;;;;9.85;4.53;;;;;;;;;;4998775;28;20019;-63
2023/09/20 05:38:30;;;;;;;6.78;4.47;;;;;;;;;;4972998;28;20054;-63
2023/09/20 05:40:56;;;;;;;6.47;4.07;;;;;;;;;;4972545;28;20027;-63
2023/09/20 05:43:22;;;;;;;7.13;4.85;;;;;;;;;;4971954;28;20088;-63
2023/09/20 05:45:48;;;;;;;6.35;4.63;;;;;;;;;;4972834;28;20035;-63
2023/09/20 05:51:48;;;;;;;9.30;4.95;;;;;;;;;;4974108;28;20034;-63
2023/09/20 05:57:48;;;;;;;7.30;4.45;;;;;;;;;;4973175;28;20030;-63
2023/09/20 06:03:49;;;;;;;8.20;3.85;;;;;;;;;;4973899;28;20034;-63
2023/09/20 06:09:48;;;;;;;9.98;4.00;;;;;;;;;;4973837;28;20109;-59
2023/09/20 06:12:14;;;;;;;4.85;3.63;;;;;;;;;;4985684;22;20146;-62
2023/09/20 06:14:39;;;;;;;4.57;3.15;;;;;;;;;;4984772;22;20054;-59
2023/09/20 06:17:05;;;;;;;4.28;3.47;;;;;;;;;;5023305;28;20027;-61
2023/09/20 06:19:30;;;;;;;5.05;3.78;;;;;;;;;;4973119;28;20114;-62
2023/09/20 06:21:56;;;;;;;7.60;4.18;;;;;;;;;;4973133;28;20038;-62
2023/09/20 06:24:22;;;;;;;3.85;3.55;;;;;;;;;;4973034;28;20472;-62
2023/09/20 06:26:47;;;;;;;4.00;3.70;;;;;;;;;;4972969;28;20034;-62
2023/09/20 06:29:13;;;;;;;4.68;4.15;;;;;;;;;;4972949;28;20035;-63
2023/09/20 06:31:38;;;;;;;4.15;3.75;;;;;;;;;;4972883;28;20031;-62
2023/09/20 06:34:04;;;;;;;6.65;4.20;;;;;;;;;;4973033;28;20039;-62
2023/09/20 06:36:29;;;;;;;4.60;3.85;;;;;;;;;;4972835;28;20023;-62
2023/09/20 06:38:55;;;;;;;5.90;4.00;;;;;;;;;;4972943;28;20023;-62
2023/09/20 06:41:21;;;;;;;6.28;4.13;;;;;;;;;;5039510;28;20038;-62
2023/09/20 06:43:46;;;;;;;6.22;4.70;;;;;;;;;;5039449;28;20625;-62
2023/09/20 06:46:11;;;;;;;8.52;5.15;;;;;;;;;;4972713;28;20431;-62
2023/09/20 06:48:38;;;;;;;4.88;4.35;;;;;;;;;;5039274;28;20289;-62
2023/09/20 06:51:03;;;;;;;7.32;4.43;;;;;;;;;;4972734;28;20034;-62
2023/09/20 06:53:30;;;;;;;5.85;4.82;;;;;;;;;;4972585;28;20088;-62
2023/09/20 06:55:55;;;;;;;5.78;4.65;;;;;;;;;;4972551;28;20102;-62
2023/09/20 06:58:21;;;;;;;6.60;4.38;;;;;;;;;;4972754;28;20106;-62
2023/09/20 07:00:47;;;;;;;5.75;5.07;;;;;;;;;;4972654;28;20411;-62
2023/09/20 07:03:12;;;;;;;7.00;5.03;;;;;;;;;;4972527;28;20081;-62
2023/09/20 07:05:37;;;;;;;6.78;5.70;;;;;;;;;;4972375;28;20065;-62
2023/09/20 07:08:05;;;;;;;7.05;4.55;;;;;;;;;;4972423;28;20023;-62
2023/09/20 07:10:31;;;;;;;5.35;4.05;;;;;;;;;;4971426;28;20070;-62
2023/09/20 07:12:57;;;;;;;7.45;4.75;;;;;;;;;;4972212;28;20042;-62
2023/09/20 07:15:25;;;;;;;6.35;4.13;;;;;;;;;;4972145;28;20047;-62
2023/09/20 07:17:58;;;;;;;6.32;4.25;;;;;;;;;;4972292;28;20110;-62
2023/09/20 07:20:24;;;;;;;5.80;3.70;;;;;;;;;;4972177;28;20110;-62
2023/09/20 07:22:51;;;;;;;6.10;4.32;;;;;;;;;;4972194;28;20062;-62
2023/09/20 07:25:19;;;;;;;3.88;3.40;;;;;;;;;;4972157;28;20039;-62
2023/09/20 07:27:45;;;;;;;6.50;3.88;;;;;;;;;;4972301;28;20088;-62
2023/09/20 07:30:17;;;;;;;5.28;3.50;;;;;;;;;;4972065;28;20031;-62
2023/09/20 07:32:46;;;;;;;5.97;3.40;;;;;;;;;;4971958;28;20038;-62
2023/09/20 07:35:27;;;;;;;3.97;3.35;;;;;;;;;;4972084;28;20443;-62
2023/09/20 07:37:56;;;;;;;4.43;3.25;;;;;;;;;;5038629;28;20031;-63
2023/09/20 07:40:25;;;;;;;3.93;3.17;;;;;;;;;;4971972;28;20106;-63
2023/09/20 07:42:51;;;;;;;5.65;3.05;;;;;;;;;;4971936;28;20386;-63
2023/09/20 07:45:18;;;;;;;4.90;3.05;;;;;;;;;;4971983;28;20803;-62
2023/09/20 07:47:44;;;;;;;3.78;2.72;;;;;;;;;;4971889;28;20388;-63
2023/09/20 07:50:14;;;;;;;5.18;2.80;;;;;;;;;;4971849;28;20038;-62
2023/09/20 07:52:40;;;;;;;3.75;3.03;;;;;;;;;;4971812;28;20035;-62
2023/09/20 07:55:06;;;;;;;2.42;2.17;;;;;;;;;;5038499;28;20435;-62
2023/09/20 07:57:32;;;;;;;3.53;2.30;;;;;;;;;;4971779;28;20088;-62
2023/09/20 07:59:59;;;;;;;4.95;2.33;;;;;;;;;;4971702;28;20027;-62
2023/09/20 08:02:27;;;;;;;7.15;2.70;;;;;;;;;;4971762;28;20081;-62
2023/09/20 08:04:53;;;;;;;3.35;2.42;;;;;;;;;;4971675;28;20118;-62
2023/09/20 08:07:19;;;;;;;3.70;2.17;;;;;;;;;;4971492;28;20031;-62
2023/09/20 08:09:44;;;;;;;5.13;2.65;;;;;;;;;;4971564;28;20541;-63
2023/09/20 08:12:11;;;;;;;3.35;2.30;;;;;;;;;;4971489;28;20449;-63
2023/09/20 08:14:37;;;;;;;3.67;2.25;;;;;;;;;;4971415;28;20039;-63
2023/09/20 08:19:46;;;;;;;2.08;1.80;;;;;;;;;;4971455;28;20049;-63
2023/09/20 08:22:15;;;;;;;2.22;1.85;;;;;;;;;;5040687;28;20516;-63
2023/09/20 09:00:30;;;;;;;3.38;1.60;;;;;;;;;;4974251;28;20387;-63
2023/09/20 09:02:59;;;;;;;1.70;1.60;;;;;;;;;;4974353;28;20039;-63
2023/09/20 09:05:27;;;;;;;1.52;1.00;;;;;;;;;;4974318;28;20038;-63
2023/09/20 09:07:53;;;;;;;2.15;1.20;;;;;;;;;;4974250;28;20022;-63
2023/09/20 09:10:18;;;;;;;3.65;1.48;;;;;;;;;;4974211;28;20059;-63
2023/09/20 09:12:44;;;;;;;1.38;1.15;;;;;;;;;;4974039;28;20549;-63
2023/09/20 09:15:11;;;;;;;0.88;0.88;;;;;;;;;;4973992;28;20200;-63
2023/09/20 09:17:40;;;;;;;2.72;1.05;;;;;;;;;;4974087;28;20042;-63
2023/09/20 09:20:08;;;;;;;1.50;1.25;;;;;;;;;;4974104;28;20457;-63
2023/09/20 09:22:34;;;;;;;1.75;1.20;;;;;;;;;;4974066;28;20069;-63
2023/09/20 09:24:59;;;;;;;2.00;1.30;;;;;;;;;;4973896;28;20035;-63
2023/09/20 09:27:25;;;;;;;2.22;1.10;;;;;;;;;;4974008;28;20058;-63
2023/09/20 09:29:50;;;;;;;3.90;1.23;;;;;;;;;;4973886;28;20453;-63
2023/09/20 09:32:16;;;;;;;2.20;1.45;;;;;;;;;;4973368;28;20463;-63
2023/09/20 09:34:41;;;;;;;2.10;1.17;;;;;;;;;;4973273;28;20031;-63
2023/09/20 09:37:11;;;;;;;1.30;1.20;;;;;;;;;;4973869;28;20456;-63
2023/09/20 09:39:36;;;;;;;1.52;1.25;;;;;;;;;;5040657;28;20039;-63
2023/09/20 09:42:02;;;;;;;1.13;0.98;;;;;;;;;;4973674;28;20431;-63
2023/09/20 09:44:27;;;;;;;1.52;1.42;;;;;;;;;;5040447;28;20473;-63
2023/09/20 09:46:54;;;;;;;1.38;1.27;;;;;;;;;;4973685;28;20039;-63
2023/09/20 09:49:19;;;;;;;1.48;1.27;;;;;;;;;;4973613;28;20035;-63
2023/09/20 09:51:46;;;;;;;4.43;1.73;;;;;;;;;;4973604;28;20499;-63
2023/09/20 09:54:12;;;;;;;1.77;1.17;;;;;;;;;;4973443;28;20035;-63
2023/09/20 09:56:37;;;;;;;1.73;1.60;;;;;;;;;;5040430;28;20030;-63
2023/09/20 09:59:04;;;;;;;1.50;1.33;;;;;;;;;;5040562;28;20035;-63
2023/09/20 10:01:29;;;;;;;2.30;1.40;;;;;;;;;;4973419;28;20031;-63
2023/09/20 10:03:59;;;;;;;2.58;1.75;;;;;;;;;;4973386;28;20042;-63
2023/09/20 10:06:27;;;;;;;3.33;1.60;;;;;;;;;;4973385;28;20041;-63
2023/09/20 10:08:54;;;;;;;2.38;1.50;;;;;;;;;;4973338;28;20506;-63
2023/09/20 10:11:21;;;;;;;1.48;1.25;;;;;;;;;;4973226;28;20038;-63
2023/09/20 10:13:47;;;;;;;2.88;1.60;;;;;;;;;;4973209;28;20451;-63
2023/09/20 10:16:16;;;;;;;2.08;1.50;;;;;;;;;;4973044;28;20070;-63
2023/09/20 10:18:53;;;;;;;4.05;1.50;;;;;;;;;;4973153;28;20544;-63
2023/09/20 10:21:24;;;;;;;1.42;1.33;;;;;;;;;;4973093;28;20051;-63
2023/09/20 10:23:54;;;;;;;2.05;1.63;;;;;;;;;;5039794;28;20073;-63
2023/09/20 10:26:20;;;;;;;1.75;1.65;;;;;;;;;;4972991;28;20038;-63
2023/09/20 10:28:47;;;;;;;2.20;1.33;;;;;;;;;;5040001;28;20023;-63
2023/09/20 10:31:16;;;;;;;1.48;1.23;;;;;;;;;;4973003;28;20388;-63
2023/09/20 10:33:47;;;;;;;2.40;1.33;;;;;;;;;;4972848;28;20105;-63
2023/09/20 10:36:20;;;;;;;0.85;0.85;;;;;;;;;;4972894;28;20469;-63
2023/09/20 10:38:46;;;;;;;1.58;1.48;;;;;;;;;;4972878;28;20076;-63
2023/09/20 10:41:12;;;;;;;1.35;1.20;;;;;;;;;;5039506;28;20023;-63
2023/09/20 10:43:39;;;;;;;2.65;1.17;;;;;;;;;;4972710;28;20038;-63
2023/09/20 10:46:27;;;;;;;1.58;1.20;;;;;;;;;;4972785;28;20063;-63
2023/09/20 10:48:52;;;;;;;1.25;0.93;;;;;;;;;;4972802;28;20065;-63
2023/09/20 10:51:38;;;;;;;1.50;1.05;;;;;;;;;;4972653;28;20461;-63
2023/09/20 10:54:17;;;;;;;1.10;1.00;;;;;;;;;;4972603;28;20046;-63
2023/09/20 10:56:52;;;;;;;1.35;1.25;;;;;;;;;;4972611;28;20031;-63
2023/09/20 10:59:18;;;;;;;1.30;1.00;;;;;;;;;;4972573;28;20031;-63
2023/09/20 11:01:50;;;;;;;1.48;1.38;;;;;;;;;;4972573;28;20031;-63
2023/09/20 11:04:16;;;;;;;2.10;1.27;;;;;;;;;;5039105;28;20140;-63
2023/09/20 11:06:52;;;;;;;1.27;1.08;;;;;;;;;;4972449;28;20045;-63
2023/09/20 11:09:20;;;;;;;1.05;0.80;;;;;;;;;;4972385;28;20043;-63
2023/09/20 11:11:46;;;;;;;1.25;1.08;;;;;;;;;;4972466;28;20046;-63
2023/09/20 11:14:12;;;;;;;1.27;1.17;;;;;;;;;;4972131;28;20027;-63
2023/09/20 11:16:41;;;;;;;0.75;0.75;;;;;;;;;;4972330;28;20066;-63
2023/09/20 11:19:11;;;;;;;0.73;0.73;;;;;;;;;;4972257;28;20031;-63
2023/09/20 11:21:37;;;;;;;3.17;1.10;;;;;;;;;;5039004;28;20035;-63
2023/09/20 11:24:03;;;;;;;1.20;0.90;;;;;;;;;;4972171;28;20035;-63
2023/09/20 11:26:28;;;;;;;1.70;1.17;;;;;;;;;;4972130;28;20066;-63
2023/09/20 11:28:54;;;;;;;1.23;1.13;;;;;;;;;;4972143;28;20027;-63
2023/09/20 11:31:27;;;;;;;1.30;0.93;;;;;;;;;;4972034;28;20030;-63
2023/09/20 11:33:57;;;;;;;0.77;0.77;;;;;;;;;;4972059;28;20070;-63
2023/09/20 11:36:23;;;;;;;0.93;0.93;;;;;;;;;;4972062;28;20377;-63
2023/09/20 11:38:48;;;;;;;3.17;1.08;;;;;;;;;;4971981;28;20027;-63
2023/09/20 11:41:14;;;;;;;0.70;0.70;;;;;;;;;;4971996;28;20429;-63
2023/09/20 11:43:41;;;;;;;0.70;0.70;;;;;;;;;;4971854;28;20394;-63
2023/09/20 11:46:12;;;;;;;1.42;0.98;;;;;;;;;;4971922;28;20070;-63
2023/09/20 11:48:38;;;;;;;1.20;1.10;;;;;;;;;;4971888;28;20035;-63
2023/09/20 11:51:04;;;;;;;0.70;0.70;;;;;;;;;;4971787;28;20089;-63
2023/09/20 11:53:30;;;;;;;1.20;1.10;;;;;;;;;;5038166;28;20107;-63
2023/09/20 11:55:58;;;;;;;2.40;1.30;;;;;;;;;;5037917;28;20090;-63
2023/09/20 11:58:23;;;;;;;0.98;0.85;;;;;;;;;;4971765;28;20106;-63
2023/09/20 12:00:49;;;;;;;1.65;0.95;;;;;;;;;;4971725;28;20491;-63
2023/09/20 12:03:15;;;;;;;1.60;0.63;;;;;;;;;;4971675;28;20035;-63
2023/09/20 12:05:41;;;;;;;0.70;0.70;;;;;;;;;;4971639;28;20118;-63
2023/09/20 12:08:09;;;;;;;1.23;1.10;;;;;;;;;;4971689;28;20378;-63
2023/09/20 12:10:34;;;;;;;2.63;1.00;;;;;;;;;;4971738;28;20015;-63
2023/09/20 12:13:00;;;;;;;1.52;1.02;;;;;;;;;;4971719;28;20110;-63
2023/09/20 12:15:25;;;;;;;0.95;0.90;;;;;;;;;;4971466;28;20063;-63
2023/09/20 12:17:51;;;;;;;1.20;1.02;;;;;;;;;;4971506;28;20125;-63
2023/09/20 12:20:17;;;;;;;1.02;0.70;;;;;;;;;;4971506;28;20035;-63
2023/09/20 12:22:43;;;;;;;1.38;1.27;;;;;;;;;;4971451;28;20126;-63
2023/09/20 12:25:11;;;;;;;4.40;1.30;;;;;;;;;;4971440;28;20059;-63
2023/09/20 12:27:37;;;;;;;2.58;1.30;;;;;;;;;;5038310;28;20117;-63
2023/09/20 12:30:04;;;;;;;1.40;1.27;;;;;;;;;;4971361;28;20102;-63
2023/09/20 12:32:29;;;;;;;0.93;0.82;;;;;;;;;;4971429;28;20035;-63
2023/09/20 12:34:55;;;;;;;1.15;1.02;;;;;;;;;;4971643;28;20042;-63
2023/09/20 12:37:20;;;;;;;1.20;1.10;;;;;;;;;;4971591;28;20510;-63
2023/09/20 12:39:47;;;;;;;2.58;1.10;;;;;;;;;;4971565;28;20464;-63
2023/09/20 12:42:12;;;;;;;1.60;0.82;;;;;;;;;;4971534;28;20030;-63
2023/09/20 12:44:37;;;;;;;1.95;0.93;;;;;;;;;;5038139;28;20039;-63
2023/09/20 12:47:03;;;;;;;1.08;1.08;;;;;;;;;;4971756;28;20033;-63
2023/09/20 12:49:28;;;;;;;1.90;0.75;;;;;;;;;;4971354;28;20484;-63
2023/09/20 12:51:54;;;;;;;0.95;0.88;;;;;;;;;;4969383;28;20031;-63
2023/09/20 12:54:19;;;;;;;1.90;1.00;;;;;;;;;;4970254;28;20392;-63
2023/09/20 12:56:45;;;;;;;1.00;1.00;;;;;;;;;;4970403;28;20031;-63
2023/09/20 12:59:13;;;;;;;1.50;0.98;;;;;;;;;;4971313;28;20089;-63
2023/09/20 13:01:38;;;;;;;1.15;0.95;;;;;;;;;;4970972;28;20051;-63
2023/09/20 13:04:04;;;;;;;1.60;1.20;;;;;;;;;;5021323;28;20077;-63
2023/09/20 13:06:32;;;;;;;1.52;1.00;;;;;;;;;;4970910;28;20038;-63
2023/09/20 13:08:58;;;;;;;1.45;1.08;;;;;;;;;;5039876;28;20476;-63
2023/09/20 13:11:23;;;;;;;1.65;1.20;;;;;;;;;;4974535;28;20037;-63
2023/09/20 13:13:49;;;;;;;1.65;0.65;;;;;;;;;;4974581;28;20027;-63
2023/09/20 13:16:15;;;;;;;0.70;0.70;;;;;;;;;;4974375;28;20043;-63
2023/09/20 13:18:41;;;;;;;0.85;0.85;;;;;;;;;;4974318;28;20035;-63
2023/09/20 13:21:07;;;;;;;1.65;1.17;;;;;;;;;;4974682;28;20074;-64
2023/09/20 13:23:32;;;;;;;1.77;0.93;;;;;;;;;;4974432;28;20381;-59
2023/09/20 13:25:59;;;;;;;2.05;0.77;;;;;;;;;;5002693;28;20114;-59
2023/09/20 13:28:25;;;;;;;0.88;0.73;;;;;;;;;;5006412;28;20038;-60
2023/09/20 13:30:51;;;;;;;1.33;1.10;;;;;;;;;;4973405;28;20030;-62
2023/09/20 13:33:17;;;;;;;1.45;1.02;;;;;;;;;;4974248;28;20043;-59
2023/09/20 13:35:42;;;;;;;1.10;1.00;;;;;;;;;;4973641;28;20376;-62
2023/09/20 13:38:09;;;;;;;0.98;0.98;;;;;;;;;;4974369;28;20027;-63
2023/09/20 13:40:36;;;;;;;3.15;1.00;;;;;;;;;;4973506;28;20015;-59
2023/09/20 13:43:01;;;;;;;0.95;0.70;;;;;;;;;;4973556;28;20058;-59
2023/09/20 13:45:26;;;;;;;1.38;1.15;;;;;;;;;;4974025;28;20486;-59
2023/09/20 13:47:52;;;;;;;1.15;1.02;;;;;;;;;;4974285;28;20114;-59
2023/09/20 13:50:18;;;;;;;0.80;0.80;;;;;;;;;;4974302;28;20026;-59
2023/09/20 13:52:44;;;;;;;0.95;0.95;;;;;;;;;;4971651;28;20027;-60
2023/09/20 13:55:11;;;;;;;1.15;1.05;;;;;;;;;;4967811;28;20456;-60
2023/09/20 13:57:37;;;;;;;1.02;0.82;;;;;;;;;;4953561;28;20428;-59
2023/09/20 14:00:03;;;;;;;2.97;0.90;;;;;;;;;;4959348;28;20027;-59
2023/09/20 14:02:36;;;;;;;1.00;0.90;;;;;;;;;;4974289;28;20035;-59
2023/09/20 14:05:05;;;;;;;1.95;0.80;;;;;;;;;;4974111;28;20027;-60
2023/09/20 14:07:32;;;;;;;1.95;1.58;;;;;;;;;;5040396;28;20481;-60
2023/09/20 14:09:57;;;;;;;1.58;0.80;;;;;;;;;;5040191;28;20038;-59
2023/09/20 14:12:23;;;;;;;1.50;0.90;;;;;;;;;;4973288;28;20041;-60
2023/09/20 14:14:50;;;;;;;2.42;0.95;;;;;;;;;;4973557;28;20035;-60
2023/09/20 14:17:16;;;;;;;1.35;1.10;;;;;;;;;;4973201;28;20031;-59
2023/09/20 14:19:43;;;;;;;1.00;0.98;;;;;;;;;;5039966;28;20098;-59
2023/09/20 14:22:11;;;;;;;0.80;0.80;;;;;;;;;;4973506;28;20031;-60
2023/09/20 14:24:36;;;;;;;0.95;0.80;;;;;;;;;;4973927;28;20031;-59
2023/09/20 14:27:02;;;;;;;1.05;0.95;;;;;;;;;;4973998;28;20358;-60
2023/09/20 14:29:28;;;;;;;1.13;1.02;;;;;;;;;;5038789;28;20031;-60
2023/09/20 14:31:54;;;;;;;0.85;0.80;;;;;;;;;;4972791;28;20041;-59
2023/09/20 14:34:21;;;;;;;1.60;1.00;;;;;;;;;;4973407;28;20110;-60
2023/09/20 14:36:47;;;;;;;0.88;0.88;;;;;;;;;;4973218;28;20076;-60
2023/09/20 14:39:13;;;;;;;1.40;1.30;;;;;;;;;;4973503;28;20031;-59
2023/09/20 14:41:38;;;;;;;1.20;1.00;;;;;;;;;;4973051;28;20379;-59
2023/09/20 14:44:03;;;;;;;2.15;1.10;;;;;;;;;;5040530;28;20084;-60
2023/09/20 14:46:29;;;;;;;1.40;0.80;;;;;;;;;;4972940;28;20018;-59
2023/09/20 14:48:54;;;;;;;1.83;1.38;;;;;;;;;;4973012;28;20031;-60
2023/09/20 14:51:20;;;;;;;1.70;1.25;;;;;;;;;;4972831;28;20080;-60
2023/09/20 14:53:46;;;;;;;1.95;1.00;;;;;;;;;;4971886;28;20144;-60
2023/09/20 14:56:13;;;;;;;1.52;1.20;;;;;;;;;;4972523;28;20031;-60
2023/09/20 14:58:38;;;;;;;1.27;0.90;;;;;;;;;;4972479;28;20038;-60
2023/09/20 15:01:17;;;;;;;0.98;0.88;;;;;;;;;;4972444;28;20027;-60
2023/09/20 15:03:42;;;;;;;1.33;1.23;;;;;;;;;;4972433;28;20022;-60
2023/09/20 15:06:14;;;;;;;1.15;0.98;;;;;;;;;;4971081;28;20777;-60
2023/09/20 15:08:40;;;;;;;1.50;1.10;;;;;;;;;;4971199;28;20027;-59
2023/09/20 15:11:06;;;;;;;1.98;1.10;;;;;;;;;;4971046;28;20507;-59
2023/09/20 15:13:32;;;;;;;1.77;1.02;;;;;;;;;;4971925;28;20035;-60
2023/09/20 15:15:58;;;;;;;1.90;1.02;;;;;;;;;;4970855;28;20039;-59
2023/09/20 15:18:24;;;;;;;3.75;0.98;;;;;;;;;;4972115;28;20027;-59
2023/09/20 15:20:51;;;;;;;1.67;1.10;;;;;;;;;;4970991;28;20033;-60
2023/09/20 15:23:18;;;;;;;2.20;1.10;;;;;;;;;;4970661;28;20381;-60
2023/09/20 15:25:44;;;;;;;1.33;1.23;;;;;;;;;;4971055;28;20057;-60
2023/09/20 15:28:09;;;;;;;3.72;2.22;;;;;;;;;;4971049;28;20039;-60
2023/09/20 15:30:37;;;;;;;3.13;2.22;;;;;;;;;;4970895;28;20055;-60
2023/09/20 15:33:02;;;;;;;4.20;3.10;;;;;;;;;;4971834;28;20035;-60